sensor_id;sensor_type;location;lat;lon;timestamp;temperature;humidity
1534;DHT22;760;48.822;9.304;2023-06-26T04:05:10;17.70;99.90
1534;DHT22;760;48.822;9.304;2023-06-26T04:07:37;17.70;99.90
1534;DHT22;760;48.822;9.304;2023-06-26T04:10:03;17.70;99.90
1534;DHT22;760;48.822;9.304;2023-06-26T04:12:28;17.80;99.90
1534;DHT22;760;48.822;9.304;2023-06-26T04:14:54;17.90;99.90
1534;DHT22;760;48.822;9.304;2023-06-26T04:17:19;18.10;99.90
1534;DHT22;760;48.822;9.304;2023-06-26T04:19:46;18.30;99.90
1534;DHT22;760;48.822;9.304;2023-06-26T04:22:11;18.50;99.90
1534;DHT22;760;48.822;9.304;2023-06-26T04:24:37;18.70;99.90
1534;DHT22;760;48.822;9.304;2023-06-26T04:27:02;18.80;99.70
1534;DHT22;760;48.822;9.304;2023-06-26T04:29:28;19.00;99.60
1534;DHT22;760;48.822;9.304;2023-06-26T04:31:54;19.20;99.30
1534;DHT22;760;48.822;9.304;2023-06-26T04:34:27;19.40;98.30
1534;DHT22;760;48.822;9.304;2023-06-26T04:36:53;19.60;97.90
1534;DHT22;760;48.822;9.304;2023-06-26T04:39:19;19.60;98.00
1534;DHT22;760;48.822;9.304;2023-06-26T04:41:45;19.70;97.50
1534;DHT22;760;48.822;9.304;2023-06-26T04:44:11;19.90;97.10
1534;DHT22;760;48.822;9.304;2023-06-26T04:46:37;20.10;96.90
1534;DHT22;760;48.822;9.304;2023-06-26T04:49:07;20.40;96.30
1534;DHT22;760;48.822;9.304;2023-06-26T04:51:32;20.50;96.10
1534;DHT22;760;48.822;9.304;2023-06-26T04:53:58;20.60;96.00
1534;DHT22;760;48.822;9.304;2023-06-26T04:56:24;20.70;95.60
1534;DHT22;760;48.822;9.304;2023-06-26T04:58:49;20.70;95.40
1534;DHT22;760;48.822;9.304;2023-06-26T05:01:15;20.70;95.50
1534;DHT22;760;48.822;9.304;2023-06-26T05:03:40;20.90;95.50
1534;DHT22;760;48.822;9.304;2023-06-26T05:06:06;20.90;95.00
1534;DHT22;760;48.822;9.304;2023-06-26T05:08:32;21.00;95.30
1534;DHT22;760;48.822;9.304;2023-06-26T05:10:57;21.00;95.30
1534;DHT22;760;48.822;9.304;2023-06-26T05:13:24;21.00;95.00
1534;DHT22;760;48.822;9.304;2023-06-26T05:15:50;21.00;94.70
1534;DHT22;760;48.822;9.304;2023-06-26T05:18:15;21.10;95.00
1534;DHT22;760;48.822;9.304;2023-06-26T05:20:41;21.20;95.20
1534;DHT22;760;48.822;9.304;2023-06-26T05:23:07;21.30;95.40
1534;DHT22;760;48.822;9.304;2023-06-26T05:25:33;21.40;95.00
1534;DHT22;760;48.822;9.304;2023-06-26T05:28:01;21.50;94.70
1534;DHT22;760;48.822;9.304;2023-06-26T05:30:28;21.60;94.70
1534;DHT22;760;48.822;9.304;2023-06-26T05:32:54;21.70;94.40
1534;DHT22;760;48.822;9.304;2023-06-26T05:35:20;21.90;94.40
1534;DHT22;760;48.822;9.304;2023-06-26T05:37:49;22.30;94.10
1534;DHT22;760;48.822;9.304;2023-06-26T05:40:18;23.10;93.20
1534;DHT22;760;48.822;9.304;2023-06-26T05:42:44;23.80;91.90
1534;DHT22;760;48.822;9.304;2023-06-26T05:45:10;24.30;91.10
1534;DHT22;760;48.822;9.304;2023-06-26T05:47:36;24.50;90.60
1534;DHT22;760;48.822;9.304;2023-06-26T05:50:02;24.50;90.30
1534;DHT22;760;48.822;9.304;2023-06-26T05:52:28;24.60;90.00
1534;DHT22;760;48.822;9.304;2023-06-26T05:54:55;24.40;90.00
1534;DHT22;760;48.822;9.304;2023-06-26T05:57:24;24.40;90.00
1534;DHT22;760;48.822;9.304;2023-06-26T05:59:50;24.40;89.40
1534;DHT22;760;48.822;9.304;2023-06-26T06:02:16;24.30;89.70
1534;DHT22;760;48.822;9.304;2023-06-26T06:04:42;24.30;90.20
1534;DHT22;760;48.822;9.304;2023-06-26T06:07:07;24.30;90.30
1534;DHT22;760;48.822;9.304;2023-06-26T06:09:33;24.30;90.00
1534;DHT22;760;48.822;9.304;2023-06-26T06:11:59;24.30;90.10
1534;DHT22;760;48.822;9.304;2023-06-26T06:14:25;24.40;90.00
1534;DHT22;760;48.822;9.304;2023-06-26T06:16:50;24.50;90.00
1534;DHT22;760;48.822;9.304;2023-06-26T06:19:16;24.60;88.50
1534;DHT22;760;48.822;9.304;2023-06-26T06:21:41;24.60;88.70
1534;DHT22;760;48.822;9.304;2023-06-26T06:24:08;24.70;87.80
1534;DHT22;760;48.822;9.304;2023-06-26T06:26:35;24.80;88.00
1534;DHT22;760;48.822;9.304;2023-06-26T06:29:01;24.80;88.00
1534;DHT22;760;48.822;9.304;2023-06-26T06:31:26;24.90;89.00
1534;DHT22;760;48.822;9.304;2023-06-26T06:33:54;25.10;87.60
1534;DHT22;760;48.822;9.304;2023-06-26T06:36:20;25.20;87.90
1534;DHT22;760;48.822;9.304;2023-06-26T06:38:45;25.20;87.40
1534;DHT22;760;48.822;9.304;2023-06-26T06:41:11;25.30;86.30
1534;DHT22;760;48.822;9.304;2023-06-26T06:43:38;25.30;85.90
1534;DHT22;760;48.822;9.304;2023-06-26T06:46:03;25.40;87.60
1534;DHT22;760;48.822;9.304;2023-06-26T06:48:30;25.60;88.60
1534;DHT22;760;48.822;9.304;2023-06-26T06:50:56;25.70;87.40
1534;DHT22;760;48.822;9.304;2023-06-26T06:53:21;25.80;87.00
1534;DHT22;760;48.822;9.304;2023-06-26T06:55:47;25.90;87.60
1534;DHT22;760;48.822;9.304;2023-06-26T06:58:12;26.00;88.00
1534;DHT22;760;48.822;9.304;2023-06-26T07:00:38;26.20;86.80
1534;DHT22;760;48.822;9.304;2023-06-26T07:03:03;26.30;85.00
1534;DHT22;760;48.822;9.304;2023-06-26T07:05:29;26.40;84.70
1534;DHT22;760;48.822;9.304;2023-06-26T07:07:55;26.40;84.50
1534;DHT22;760;48.822;9.304;2023-06-26T07:10:20;26.60;84.10
1534;DHT22;760;48.822;9.304;2023-06-26T07:12:46;26.70;84.30
1534;DHT22;760;48.822;9.304;2023-06-26T07:15:12;26.90;83.60
1534;DHT22;760;48.822;9.304;2023-06-26T07:17:38;27.00;82.80
1534;DHT22;760;48.822;9.304;2023-06-26T07:20:05;27.10;81.90
1534;DHT22;760;48.822;9.304;2023-06-26T07:22:36;27.20;81.70
1534;DHT22;760;48.822;9.304;2023-06-26T07:25:02;27.40;81.50
1534;DHT22;760;48.822;9.304;2023-06-26T07:27:29;27.60;78.70
1534;DHT22;760;48.822;9.304;2023-06-26T07:29:55;28.00;79.00
1534;DHT22;760;48.822;9.304;2023-06-26T07:32:20;28.50;77.90
1534;DHT22;760;48.822;9.304;2023-06-26T07:34:46;29.20;76.70
1534;DHT22;760;48.822;9.304;2023-06-26T07:37:11;30.00;74.10
1534;DHT22;760;48.822;9.304;2023-06-26T07:39:37;30.70;72.60
1534;DHT22;760;48.822;9.304;2023-06-26T07:42:03;31.60;71.00
1534;DHT22;760;48.822;9.304;2023-06-26T07:44:28;32.80;69.40
1534;DHT22;760;48.822;9.304;2023-06-26T07:46:54;33.80;64.20
1534;DHT22;760;48.822;9.304;2023-06-26T07:49:19;34.90;61.60
1534;DHT22;760;48.822;9.304;2023-06-26T07:51:45;36.10;58.40
1534;DHT22;760;48.822;9.304;2023-06-26T07:54:11;37.20;57.10
1534;DHT22;760;48.822;9.304;2023-06-26T07:59:21;39.50;52.40
1534;DHT22;760;48.822;9.304;2023-06-26T08:01:49;40.10;51.40
1534;DHT22;760;48.822;9.304;2023-06-26T08:04:15;40.80;49.40
1534;DHT22;760;48.822;9.304;2023-06-26T08:06:40;41.20;48.00
1534;DHT22;760;48.822;9.304;2023-06-26T08:09:06;41.10;48.00
1534;DHT22;760;48.822;9.304;2023-06-26T08:11:33;41.40;47.10
1534;DHT22;760;48.822;9.304;2023-06-26T08:13:59;41.90;47.50
1534;DHT22;760;48.822;9.304;2023-06-26T08:16:25;42.50;46.10
1534;DHT22;760;48.822;9.304;2023-06-26T08:18:50;42.40;46.10
1534;DHT22;760;48.822;9.304;2023-06-26T08:21:16;42.40;45.70
1534;DHT22;760;48.822;9.304;2023-06-26T08:23:42;42.40;45.00
1534;DHT22;760;48.822;9.304;2023-06-26T08:26:07;42.40;45.00
1534;DHT22;760;48.822;9.304;2023-06-26T08:28:33;42.30;44.50
1534;DHT22;760;48.822;9.304;2023-06-26T08:30:59;42.30;45.40
1534;DHT22;760;48.822;9.304;2023-06-26T08:33:25;42.60;44.60
1534;DHT22;760;48.822;9.304;2023-06-26T08:35:50;42.70;44.80
1534;DHT22;760;48.822;9.304;2023-06-26T08:38:16;43.10;44.70
1534;DHT22;760;48.822;9.304;2023-06-26T08:40:42;43.60;43.40
1534;DHT22;760;48.822;9.304;2023-06-26T08:43:08;43.10;42.90
1534;DHT22;760;48.822;9.304;2023-06-26T08:45:33;42.70;43.60
1534;DHT22;760;48.822;9.304;2023-06-26T08:48:00;42.60;43.20
1534;DHT22;760;48.822;9.304;2023-06-26T08:50:30;42.20;44.10
1534;DHT22;760;48.822;9.304;2023-06-26T08:53:47;41.90;45.00
1534;DHT22;760;48.822;9.304;2023-06-26T08:55:54;41.50;44.80
1534;DHT22;760;48.822;9.304;2023-06-26T08:58:22;41.50;44.90
1534;DHT22;760;48.822;9.304;2023-06-26T09:00:48;41.80;44.40
1534;DHT22;760;48.822;9.304;2023-06-26T09:03:15;42.20;44.00
1534;DHT22;760;48.822;9.304;2023-06-26T09:05:41;42.30;43.90
1534;DHT22;760;48.822;9.304;2023-06-26T09:08:07;42.70;43.70
1534;DHT22;760;48.822;9.304;2023-06-26T09:10:33;43.00;43.30
1534;DHT22;760;48.822;9.304;2023-06-26T09:12:59;42.80;43.00
1534;DHT22;760;48.822;9.304;2023-06-26T09:15:26;42.10;43.10
1534;DHT22;760;48.822;9.304;2023-06-26T09:17:56;42.10;43.60
1534;DHT22;760;48.822;9.304;2023-06-26T09:20:28;42.20;43.50
1534;DHT22;760;48.822;9.304;2023-06-26T09:22:55;42.30;44.00
1534;DHT22;760;48.822;9.304;2023-06-26T09:25:22;42.50;43.20
1534;DHT22;760;48.822;9.304;2023-06-26T09:27:48;42.90;43.50
1534;DHT22;760;48.822;9.304;2023-06-26T09:30:17;42.80;42.40
1534;DHT22;760;48.822;9.304;2023-06-26T09:32:42;42.70;42.50
1534;DHT22;760;48.822;9.304;2023-06-26T09:35:08;42.30;42.70
1534;DHT22;760;48.822;9.304;2023-06-26T09:37:34;42.40;43.20
1534;DHT22;760;48.822;9.304;2023-06-26T09:40:00;42.60;42.70
1534;DHT22;760;48.822;9.304;2023-06-26T09:42:25;42.70;42.50
1534;DHT22;760;48.822;9.304;2023-06-26T09:44:51;42.80;43.10
1534;DHT22;760;48.822;9.304;2023-06-26T09:47:19;42.20;43.30
1534;DHT22;760;48.822;9.304;2023-06-26T09:49:45;41.50;43.50
1534;DHT22;760;48.822;9.304;2023-06-26T09:52:14;40.60;43.90
1534;DHT22;760;48.822;9.304;2023-06-26T09:54:44;39.60;45.10
1534;DHT22;760;48.822;9.304;2023-06-26T09:57:15;38.90;46.80
1534;DHT22;760;48.822;9.304;2023-06-26T09:59:42;38.90;47.50
1534;DHT22;760;48.822;9.304;2023-06-26T10:02:09;39.40;45.70
1534;DHT22;760;48.822;9.304;2023-06-26T10:04:36;39.70;46.00
1534;DHT22;760;48.822;9.304;2023-06-26T10:07:05;39.80;45.10
1534;DHT22;760;48.822;9.304;2023-06-26T10:09:31;40.10;45.10
1534;DHT22;760;48.822;9.304;2023-06-26T10:12:02;40.60;45.00
1534;DHT22;760;48.822;9.304;2023-06-26T10:14:35;40.90;44.20
1534;DHT22;760;48.822;9.304;2023-06-26T10:17:04;40.80;44.40
1534;DHT22;760;48.822;9.304;2023-06-26T10:19:33;40.70;45.10
1534;DHT22;760;48.822;9.304;2023-06-26T10:22:02;40.40;44.90
1534;DHT22;760;48.822;9.304;2023-06-26T10:24:29;40.60;45.60
1534;DHT22;760;48.822;9.304;2023-06-26T10:27:02;40.90;45.30
1534;DHT22;760;48.822;9.304;2023-06-26T10:29:30;40.70;45.40
1534;DHT22;760;48.822;9.304;2023-06-26T10:31:57;40.50;45.80
1534;DHT22;760;48.822;9.304;2023-06-26T10:34:24;40.50;45.40
1534;DHT22;760;48.822;9.304;2023-06-26T10:37:02;40.40;46.30
1534;DHT22;760;48.822;9.304;2023-06-26T10:39:50;40.50;46.00
1534;DHT22;760;48.822;9.304;2023-06-26T10:42:20;40.50;46.20
1534;DHT22;760;48.822;9.304;2023-06-26T10:44:53;40.40;46.30
1534;DHT22;760;48.822;9.304;2023-06-26T10:47:32;40.00;46.70
1534;DHT22;760;48.822;9.304;2023-06-26T10:52:42;38.50;47.70
1534;DHT22;760;48.822;9.304;2023-06-26T10:55:08;37.40;48.60
1534;DHT22;760;48.822;9.304;2023-06-26T10:57:36;36.30;49.80
1534;DHT22;760;48.822;9.304;2023-06-26T11:00:13;35.80;50.40
1534;DHT22;760;48.822;9.304;2023-06-26T11:02:51;35.90;51.70
1534;DHT22;760;48.822;9.304;2023-06-26T11:05:28;36.00;51.50
1534;DHT22;760;48.822;9.304;2023-06-26T11:08:08;35.90;51.70
1534;DHT22;760;48.822;9.304;2023-06-26T11:10:51;35.80;51.90
1534;DHT22;760;48.822;9.304;2023-06-26T11:13:18;36.00;50.60
1534;DHT22;760;48.822;9.304;2023-06-26T11:15:49;36.20;50.40
1534;DHT22;760;48.822;9.304;2023-06-26T11:18:15;36.10;50.80
1534;DHT22;760;48.822;9.304;2023-06-26T11:20:41;35.90;51.20
1534;DHT22;760;48.822;9.304;2023-06-26T11:23:08;35.40;51.40
1534;DHT22;760;48.822;9.304;2023-06-26T11:25:35;35.10;52.50
1534;DHT22;760;48.822;9.304;2023-06-26T11:28:05;34.70;53.20
1534;DHT22;760;48.822;9.304;2023-06-26T11:30:31;34.30;54.20
1534;DHT22;760;48.822;9.304;2023-06-26T11:33:07;33.90;54.40
1534;DHT22;760;48.822;9.304;2023-06-26T11:35:33;33.70;55.30
1534;DHT22;760;48.822;9.304;2023-06-26T11:38:00;33.50;56.20
1534;DHT22;760;48.822;9.304;2023-06-26T11:40:29;33.20;56.40
1534;DHT22;760;48.822;9.304;2023-06-26T11:43:00;33.20;56.70
1534;DHT22;760;48.822;9.304;2023-06-26T11:45:30;33.10;56.90
1534;DHT22;760;48.822;9.304;2023-06-26T11:47:57;33.10;57.30
1534;DHT22;760;48.822;9.304;2023-06-26T11:50:23;33.10;57.70
1534;DHT22;760;48.822;9.304;2023-06-26T11:52:56;33.00;58.10
1534;DHT22;760;48.822;9.304;2023-06-26T11:55:26;33.00;58.20
1534;DHT22;760;48.822;9.304;2023-06-26T11:57:55;33.10;58.40
1534;DHT22;760;48.822;9.304;2023-06-26T12:00:22;33.20;58.90
1534;DHT22;760;48.822;9.304;2023-06-26T12:02:49;33.10;58.30
1534;DHT22;760;48.822;9.304;2023-06-26T12:05:18;33.00;58.50
1534;DHT22;760;48.822;9.304;2023-06-26T12:07:48;32.90;59.20
1534;DHT22;760;48.822;9.304;2023-06-26T12:10:15;32.80;59.90
1534;DHT22;760;48.822;9.304;2023-06-26T12:12:41;32.80;59.40
1534;DHT22;760;48.822;9.304;2023-06-26T12:15:08;32.70;59.40
1534;DHT22;760;48.822;9.304;2023-06-26T12:17:37;32.50;59.50
1534;DHT22;760;48.822;9.304;2023-06-26T12:20:05;32.10;59.90
1534;DHT22;760;48.822;9.304;2023-06-26T12:22:34;31.60;62.00
1534;DHT22;760;48.822;9.304;2023-06-26T12:25:00;31.30;63.10
1534;DHT22;760;48.822;9.304;2023-06-26T12:27:27;31.20;63.80
1534;DHT22;760;48.822;9.304;2023-06-26T12:29:54;31.00;64.20
1534;DHT22;760;48.822;9.304;2023-06-26T12:32:21;30.80;65.10
1534;DHT22;760;48.822;9.304;2023-06-26T12:34:49;30.70;66.10
1534;DHT22;760;48.822;9.304;2023-06-26T12:37:18;30.80;66.40
1534;DHT22;760;48.822;9.304;2023-06-26T12:39:52;31.00;66.00
1534;DHT22;760;48.822;9.304;2023-06-26T12:42:22;31.20;66.10
1534;DHT22;760;48.822;9.304;2023-06-26T12:44:49;31.40;64.40
1534;DHT22;760;48.822;9.304;2023-06-26T12:47:16;31.50;65.00
1534;DHT22;760;48.822;9.304;2023-06-26T12:49:43;31.60;64.90
1534;DHT22;760;48.822;9.304;2023-06-26T12:52:11;31.80;65.10
1534;DHT22;760;48.822;9.304;2023-06-26T12:54:38;31.80;65.00
1534;DHT22;760;48.822;9.304;2023-06-26T12:57:05;31.80;63.80
1534;DHT22;760;48.822;9.304;2023-06-26T12:59:37;31.60;64.30
1534;DHT22;760;48.822;9.304;2023-06-26T13:02:03;31.70;65.10
1534;DHT22;760;48.822;9.304;2023-06-26T13:04:30;31.70;64.50
1534;DHT22;760;48.822;9.304;2023-06-26T13:06:55;31.60;64.50
1534;DHT22;760;48.822;9.304;2023-06-26T13:09:22;31.60;65.60
1534;DHT22;760;48.822;9.304;2023-06-26T13:11:49;31.60;64.50
1534;DHT22;760;48.822;9.304;2023-06-26T13:14:14;31.60;65.20
1534;DHT22;760;48.822;9.304;2023-06-26T13:16:40;31.50;63.90
1534;DHT22;760;48.822;9.304;2023-06-26T13:19:06;31.30;65.30
1534;DHT22;760;48.822;9.304;2023-06-26T13:21:33;31.20;65.80
1534;DHT22;760;48.822;9.304;2023-06-26T13:23:59;31.10;65.30
1534;DHT22;760;48.822;9.304;2023-06-26T13:26:25;31.10;65.10
1534;DHT22;760;48.822;9.304;2023-06-26T13:28:52;31.00;64.50
1534;DHT22;760;48.822;9.304;2023-06-26T13:31:18;30.90;64.50
1534;DHT22;760;48.822;9.304;2023-06-26T13:33:44;30.80;64.70
1534;DHT22;760;48.822;9.304;2023-06-26T13:36:11;30.80;65.10
1534;DHT22;760;48.822;9.304;2023-06-26T13:38:37;30.80;63.90
1534;DHT22;760;48.822;9.304;2023-06-26T13:41:02;30.80;63.90
1534;DHT22;760;48.822;9.304;2023-06-26T13:43:28;30.60;64.00
1534;DHT22;760;48.822;9.304;2023-06-26T13:45:55;30.60;63.80
1534;DHT22;760;48.822;9.304;2023-06-26T13:48:21;30.60;64.20
1534;DHT22;760;48.822;9.304;2023-06-26T13:50:47;30.80;62.90
1534;DHT22;760;48.822;9.304;2023-06-26T13:53:13;30.80;61.90
1534;DHT22;760;48.822;9.304;2023-06-26T13:55:40;30.90;62.20
1534;DHT22;760;48.822;9.304;2023-06-26T13:58:06;30.90;61.80
1534;DHT22;760;48.822;9.304;2023-06-26T14:00:33;30.90;61.70
1534;DHT22;760;48.822;9.304;2023-06-26T14:03:05;30.90;61.60
1534;DHT22;760;48.822;9.304;2023-06-26T14:05:35;31.00;61.70
1534;DHT22;760;48.822;9.304;2023-06-26T14:08:06;30.90;60.30
1534;DHT22;760;48.822;9.304;2023-06-26T14:10:32;30.90;59.80
1534;DHT22;760;48.822;9.304;2023-06-26T14:13:01;30.90;59.90
1534;DHT22;760;48.822;9.304;2023-06-26T14:15:28;30.80;59.90
1534;DHT22;760;48.822;9.304;2023-06-26T14:17:54;30.80;59.90
1534;DHT22;760;48.822;9.304;2023-06-26T14:20:21;30.70;59.10
1534;DHT22;760;48.822;9.304;2023-06-26T14:22:48;30.60;59.80
1534;DHT22;760;48.822;9.304;2023-06-26T14:25:14;30.50;59.90
1534;DHT22;760;48.822;9.304;2023-06-26T14:27:40;30.50;60.20
1534;DHT22;760;48.822;9.304;2023-06-26T14:30:06;30.40;59.90
1534;DHT22;760;48.822;9.304;2023-06-26T14:32:33;30.40;59.50
1534;DHT22;760;48.822;9.304;2023-06-26T14:34:59;30.40;58.70
1534;DHT22;760;48.822;9.304;2023-06-26T14:37:26;30.40;59.00
1534;DHT22;760;48.822;9.304;2023-06-26T14:39:52;30.30;58.60
1534;DHT22;760;48.822;9.304;2023-06-26T14:42:17;30.30;58.40
1534;DHT22;760;48.822;9.304;2023-06-26T14:44:43;30.30;58.70
1534;DHT22;760;48.822;9.304;2023-06-26T14:47:12;30.30;58.70
1534;DHT22;760;48.822;9.304;2023-06-26T14:49:38;30.20;58.80
1534;DHT22;760;48.822;9.304;2023-06-26T14:52:04;30.00;58.50
1534;DHT22;760;48.822;9.304;2023-06-26T14:54:29;30.00;58.80
1534;DHT22;760;48.822;9.304;2023-06-26T14:56:55;30.00;59.10
1534;DHT22;760;48.822;9.304;2023-06-26T14:59:21;29.90;59.30
1534;DHT22;760;48.822;9.304;2023-06-26T15:01:46;29.90;59.40
1534;DHT22;760;48.822;9.304;2023-06-26T15:04:12;29.80;59.60
1534;DHT22;760;48.822;9.304;2023-06-26T15:06:37;29.70;59.70
1534;DHT22;760;48.822;9.304;2023-06-26T15:09:03;29.60;59.80
1534;DHT22;760;48.822;9.304;2023-06-26T15:11:29;29.50;60.90
1534;DHT22;760;48.822;9.304;2023-06-26T15:13:55;29.40;61.80
1534;DHT22;760;48.822;9.304;2023-06-26T15:16:21;29.40;61.10
1534;DHT22;760;48.822;9.304;2023-06-26T15:18:47;29.40;61.40
1534;DHT22;760;48.822;9.304;2023-06-26T15:21:13;29.40;61.20
1534;DHT22;760;48.822;9.304;2023-06-26T15:23:39;29.40;60.90
1534;DHT22;760;48.822;9.304;2023-06-26T15:26:04;29.30;61.00
1534;DHT22;760;48.822;9.304;2023-06-26T15:28:30;29.20;60.60
1534;DHT22;760;48.822;9.304;2023-06-26T15:30:55;29.10;60.90
1534;DHT22;760;48.822;9.304;2023-06-26T15:33:21;29.00;61.10
1534;DHT22;760;48.822;9.304;2023-06-26T15:35:46;28.90;60.70
1534;DHT22;760;48.822;9.304;2023-06-26T15:38:12;28.80;61.00
1534;DHT22;760;48.822;9.304;2023-06-26T15:40:38;28.80;60.80
1534;DHT22;760;48.822;9.304;2023-06-26T15:43:03;28.70;61.50
1534;DHT22;760;48.822;9.304;2023-06-26T15:45:29;28.70;61.60
1534;DHT22;760;48.822;9.304;2023-06-26T15:47:55;28.60;61.70
1534;DHT22;760;48.822;9.304;2023-06-26T15:50:21;28.50;62.30
1534;DHT22;760;48.822;9.304;2023-06-26T15:52:48;28.50;61.80
1534;DHT22;760;48.822;9.304;2023-06-26T15:55:14;28.50;62.20
1534;DHT22;760;48.822;9.304;2023-06-26T15:57:39;28.50;62.10
1534;DHT22;760;48.822;9.304;2023-06-26T16:00:06;28.50;62.70
1534;DHT22;760;48.822;9.304;2023-06-26T16:02:32;28.50;62.50
1534;DHT22;760;48.822;9.304;2023-06-26T16:04:57;28.40;61.90
1534;DHT22;760;48.822;9.304;2023-06-26T16:07:23;28.30;62.90
1534;DHT22;760;48.822;9.304;2023-06-26T16:09:49;28.20;63.10
1534;DHT22;760;48.822;9.304;2023-06-26T16:12:14;28.00;63.60
1534;DHT22;760;48.822;9.304;2023-06-26T16:14:40;28.00;64.00
1534;DHT22;760;48.822;9.304;2023-06-26T16:17:07;28.00;63.90
1534;DHT22;760;48.822;9.304;2023-06-26T16:19:33;27.90;63.80
1534;DHT22;760;48.822;9.304;2023-06-26T16:21:59;27.90;63.30
1534;DHT22;760;48.822;9.304;2023-06-26T16:24:24;27.80;63.90
1534;DHT22;760;48.822;9.304;2023-06-26T16:26:50;27.80;64.10
1534;DHT22;760;48.822;9.304;2023-06-26T16:29:16;27.80;64.10
1534;DHT22;760;48.822;9.304;2023-06-26T16:31:42;27.80;62.60
1534;DHT22;760;48.822;9.304;2023-06-26T16:34:07;27.70;63.00
1534;DHT22;760;48.822;9.304;2023-06-26T16:36:33;27.70;62.40
1534;DHT22;760;48.822;9.304;2023-06-26T16:39:01;27.60;62.50
1534;DHT22;760;48.822;9.304;2023-06-26T16:41:27;27.50;61.90
1534;DHT22;760;48.822;9.304;2023-06-26T16:43:53;27.40;62.10
1534;DHT22;760;48.822;9.304;2023-06-26T16:46:18;27.40;62.00
1534;DHT22;760;48.822;9.304;2023-06-26T16:48:45;27.40;61.50
1534;DHT22;760;48.822;9.304;2023-06-26T16:51:11;27.40;60.90
1534;DHT22;760;48.822;9.304;2023-06-26T16:53:37;27.30;60.10
1534;DHT22;760;48.822;9.304;2023-06-26T16:56:02;27.30;60.40
1534;DHT22;760;48.822;9.304;2023-06-26T16:58:28;27.30;60.30
1534;DHT22;760;48.822;9.304;2023-06-26T17:00:53;27.40;59.90
1534;DHT22;760;48.822;9.304;2023-06-26T17:03:20;27.40;58.30
1534;DHT22;760;48.822;9.304;2023-06-26T17:05:47;27.30;58.60
1534;DHT22;760;48.822;9.304;2023-06-26T17:08:13;27.30;58.00
1534;DHT22;760;48.822;9.304;2023-06-26T17:10:39;27.20;56.90
1534;DHT22;760;48.822;9.304;2023-06-26T17:13:04;27.10;56.70
1534;DHT22;760;48.822;9.304;2023-06-26T17:15:30;27.10;57.00
1534;DHT22;760;48.822;9.304;2023-06-26T17:17:56;27.00;56.20
1534;DHT22;760;48.822;9.304;2023-06-26T17:20:22;26.90;55.00
1534;DHT22;760;48.822;9.304;2023-06-26T17:22:48;26.80;55.00
1534;DHT22;760;48.822;9.304;2023-06-26T17:25:14;26.80;53.20
1534;DHT22;760;48.822;9.304;2023-06-26T17:27:40;26.70;51.80
1534;DHT22;760;48.822;9.304;2023-06-26T17:30:06;26.70;52.60
1534;DHT22;760;48.822;9.304;2023-06-26T17:32:32;26.70;51.80
1534;DHT22;760;48.822;9.304;2023-06-26T17:34:58;26.50;52.30
1534;DHT22;760;48.822;9.304;2023-06-26T17:37:24;26.50;52.00
1534;DHT22;760;48.822;9.304;2023-06-26T17:39:54;26.40;52.40
1534;DHT22;760;48.822;9.304;2023-06-26T17:42:20;26.30;51.80
1534;DHT22;760;48.822;9.304;2023-06-26T17:44:46;26.20;52.00
1534;DHT22;760;48.822;9.304;2023-06-26T17:47:12;26.10;51.40
1534;DHT22;760;48.822;9.304;2023-06-26T17:49:39;26.00;51.70
1534;DHT22;760;48.822;9.304;2023-06-26T17:52:05;26.00;52.00
1534;DHT22;760;48.822;9.304;2023-06-26T17:54:31;25.90;52.10
1534;DHT22;760;48.822;9.304;2023-06-26T17:56:57;25.70;52.10
1534;DHT22;760;48.822;9.304;2023-06-26T17:59:22;25.60;52.00
1534;DHT22;760;48.822;9.304;2023-06-26T18:01:49;25.50;52.10
1534;DHT22;760;48.822;9.304;2023-06-26T18:04:15;25.40;52.30
1534;DHT22;760;48.822;9.304;2023-06-26T18:06:41;25.40;52.30
1534;DHT22;760;48.822;9.304;2023-06-26T18:09:06;25.30;52.00
1534;DHT22;760;48.822;9.304;2023-06-26T18:11:33;25.20;52.20
1534;DHT22;760;48.822;9.304;2023-06-26T18:14:01;25.10;52.60
1534;DHT22;760;48.822;9.304;2023-06-26T18:16:27;25.00;52.90
1534;DHT22;760;48.822;9.304;2023-06-26T18:18:53;24.90;52.90
1534;DHT22;760;48.822;9.304;2023-06-26T18:21:19;24.90;53.40
1534;DHT22;760;48.822;9.304;2023-06-26T18:23:45;24.80;54.00
1534;DHT22;760;48.822;9.304;2023-06-26T18:26:12;24.70;54.00
1534;DHT22;760;48.822;9.304;2023-06-26T18:28:38;24.60;54.00
1534;DHT22;760;48.822;9.304;2023-06-26T18:31:04;24.60;54.30
1534;DHT22;760;48.822;9.304;2023-06-26T18:33:33;24.50;54.40
1534;DHT22;760;48.822;9.304;2023-06-26T18:35:59;24.40;54.70
1534;DHT22;760;48.822;9.304;2023-06-26T18:38:24;24.40;54.60
1534;DHT22;760;48.822;9.304;2023-06-26T18:40:50;24.30;54.90
1534;DHT22;760;48.822;9.304;2023-06-26T18:43:17;24.20;55.40
1534;DHT22;760;48.822;9.304;2023-06-26T18:45:43;24.00;55.50
1534;DHT22;760;48.822;9.304;2023-06-26T18:48:08;24.00;55.80
1534;DHT22;760;48.822;9.304;2023-06-26T18:50:34;23.90;56.00
1534;DHT22;760;48.822;9.304;2023-06-26T18:52:59;23.80;56.10
1534;DHT22;760;48.822;9.304;2023-06-26T18:55:25;23.80;56.80
1534;DHT22;760;48.822;9.304;2023-06-26T18:57:52;23.70;56.90
1534;DHT22;760;48.822;9.304;2023-06-26T19:00:18;23.60;57.10
1534;DHT22;760;48.822;9.304;2023-06-26T19:02:47;23.50;57.40
1534;DHT22;760;48.822;9.304;2023-06-26T19:05:12;23.40;57.60
1534;DHT22;760;48.822;9.304;2023-06-26T19:07:40;23.30;57.70
1534;DHT22;760;48.822;9.304;2023-06-26T19:10:06;23.20;58.20
1534;DHT22;760;48.822;9.304;2023-06-26T19:12:32;23.10;58.50
1534;DHT22;760;48.822;9.304;2023-06-26T19:14:58;23.00;58.70
1534;DHT22;760;48.822;9.304;2023-06-26T19:17:23;22.80;58.70
1534;DHT22;760;48.822;9.304;2023-06-26T19:19:49;22.70;59.40
1534;DHT22;760;48.822;9.304;2023-06-26T19:22:14;22.70;59.60
1534;DHT22;760;48.822;9.304;2023-06-26T19:24:40;22.60;60.20
1534;DHT22;760;48.822;9.304;2023-06-26T19:27:06;22.50;59.80
1534;DHT22;760;48.822;9.304;2023-06-26T19:29:31;22.40;59.80
1534;DHT22;760;48.822;9.304;2023-06-26T19:31:58;22.30;60.30
1534;DHT22;760;48.822;9.304;2023-06-26T19:34:25;22.20;60.20
1534;DHT22;760;48.822;9.304;2023-06-26T19:36:51;22.20;60.30
1534;DHT22;760;48.822;9.304;2023-06-26T19:39:16;22.10;60.20
1534;DHT22;760;48.822;9.304;2023-06-26T19:41:42;22.10;60.00
1534;DHT22;760;48.822;9.304;2023-06-26T19:44:08;22.00;60.30
1534;DHT22;760;48.822;9.304;2023-06-26T19:46:33;22.00;60.40
1534;DHT22;760;48.822;9.304;2023-06-26T19:48:59;22.00;60.00
1534;DHT22;760;48.822;9.304;2023-06-26T19:51:25;21.90;59.90
1534;DHT22;760;48.822;9.304;2023-06-26T19:53:51;21.90;60.10
1534;DHT22;760;48.822;9.304;2023-06-26T19:56:16;21.90;60.10
1534;DHT22;760;48.822;9.304;2023-06-26T19:58:43;21.90;59.90
1534;DHT22;760;48.822;9.304;2023-06-26T20:01:09;21.90;59.90
1534;DHT22;760;48.822;9.304;2023-06-26T20:03:34;21.80;60.20
1534;DHT22;760;48.822;9.304;2023-06-26T20:06:00;21.80;61.00
1534;DHT22;760;48.822;9.304;2023-06-26T20:08:26;21.80;60.70
1534;DHT22;760;48.822;9.304;2023-06-26T20:10:52;21.70;60.80
1534;DHT22;760;48.822;9.304;2023-06-26T20:13:17;21.70;61.10
1534;DHT22;760;48.822;9.304;2023-06-26T20:15:43;21.60;61.60
1534;DHT22;760;48.822;9.304;2023-06-26T20:18:09;21.60;61.60
1534;DHT22;760;48.822;9.304;2023-06-26T20:20:34;21.60;61.60
1534;DHT22;760;48.822;9.304;2023-06-26T20:23:00;21.60;62.50